Tonica, Illinois
Current Conditions -  °F | °C
As of 9:35 AM on Saturday 25 Oct 2014 (Local Time) from KVYS Reporting Station
Haze Haze  
Wind Chill: 57°   Ceiling: 400
Heat Index: 57°   Visibility: 2.5mi
Dew Point: 56°   Wind: 9mph
Humidity: 97%   Direction: 300°WNW
Pressure: 30"   Gusts: NA
Location:  41.22°N, 89.07°W
Report Text: KVYS 251435Z AUTO 30008KT 2 1/2SM BR OVC004 14/14 A3000 RMK AO2 T01400135
Loading
Personal Weather Stations






























Interactive Weather Map
Tropical Storm Tracking
New forecast layout! Learn more

10-Day Weather Forecast

Advertisements
Track Severe Weather on mobile